Buffelshoek Airport


Codes: FABG/
Name: Buffelshoek Airport
City:
Country: South Africa
Elevation: 1347 ft.

Photos at Buffelshoek Airport


   Photos courtesy of SpottingLog. You can add your own sightings and photos by signing up for a free trial today.



No photos found.

Weather at Buffelshoek Airport


Time (UTC)DescriptionTempratureWindCloud coverageVisibilityPressureHumidity
16-Jun-2024 00:00Clear Sky13°C4 mph, S0%10000m1025hPa85%
16-Jun-2024 03:00Clear Sky13°C4 mph, SW0%10000m1025hPa87%
16-Jun-2024 06:00Clear Sky14°C7 mph, S0%10000m1026hPa75%
16-Jun-2024 09:00Clear Sky22°C7 mph, SE0%10000m1025hPa45%
16-Jun-2024 12:00Clear Sky24°C7 mph, SE0%10000m1022hPa35%
16-Jun-2024 15:00Clear Sky20°C4 mph, SE0%10000m1022hPa45%
16-Jun-2024 18:00Clear Sky16°C4 mph, E0%10000m1025hPa65%
16-Jun-2024 21:00Clear Sky13°C2 mph, SW1%10000m1026hPa79%
17-Jun-2024 00:00Clear Sky12°C4 mph, SW0%10000m1025hPa86%
17-Jun-2024 03:00Clear Sky12°C4 mph, SW0%10000m1025hPa90%
17-Jun-2024 06:00Clear Sky15°C2 mph, SW0%10000m1026hPa73%
17-Jun-2024 09:00Clear Sky23°C2 mph, NE0%10000m1025hPa42%
17-Jun-2024 12:00Clear Sky24°C7 mph, NE0%10000m1021hPa31%
17-Jun-2024 15:00Clear Sky20°C7 mph, NE0%10000m1020hPa40%
17-Jun-2024 18:00Clear Sky17°C7 mph, N0%10000m1021hPa53%
17-Jun-2024 21:00Clear Sky15°C4 mph, NW0%10000m1021hPa55%
18-Jun-2024 00:00Clear Sky14°C4 mph, NW0%10000m1020hPa59%
18-Jun-2024 03:00Clear Sky12°C4 mph, NW0%10000m1020hPa62%
18-Jun-2024 06:00Clear Sky16°C7 mph, NW0%10000m1021hPa51%
18-Jun-2024 09:00Clear Sky24°C9 mph, NW0%10000m1019hPa28%
18-Jun-2024 12:00Clear Sky28°C7 mph, N0%10000m1015hPa22%
18-Jun-2024 15:00Clear Sky23°C7 mph, N0%10000m1015hPa29%
18-Jun-2024 18:00Clear Sky19°C7 mph, N1%10000m1016hPa39%
18-Jun-2024 21:00Clear Sky17°C7 mph, NW0%10000m1017hPa44%
19-Jun-2024 00:00Clear Sky15°C4 mph, W6%10000m1017hPa46%
19-Jun-2024 03:00Few Clouds14°C4 mph, W13%10000m1017hPa45%
19-Jun-2024 06:00Clear Sky18°C0 mph, SW7%10000m1018hPa34%
19-Jun-2024 09:00Clear Sky27°C4 mph, SE2%10000m1018hPa20%
19-Jun-2024 12:00Clear Sky30°C4 mph, E1%10000m1015hPa16%
19-Jun-2024 15:00Clear Sky24°C7 mph, E0%10000m1015hPa23%
19-Jun-2024 18:00Clear Sky20°C2 mph, NE0%10000m1018hPa32%
19-Jun-2024 21:00Clear Sky17°C4 mph, SW0%10000m1020hPa39%
20-Jun-2024 00:00Clear Sky15°C4 mph, S1%10000m1020hPa44%
20-Jun-2024 03:00Clear Sky13°C7 mph, S0%10000m1022hPa54%
20-Jun-2024 06:00Clear Sky16°C9 mph, S0%10000m1025hPa59%
20-Jun-2024 09:00Few Clouds22°C11 mph, SE19%10000m1025hPa56%
20-Jun-2024 12:00Few Clouds25°C7 mph, SE14%10000m1022hPa42%
20-Jun-2024 15:00Scattered Clouds21°C9 mph, SE25%10000m1022hPa53%
20-Jun-2024 18:00Few Clouds16°C4 mph, SE20%10000m1025hPa80%
20-Jun-2024 21:00Clear Sky15°C2 mph, S0%10000m1025hPa91%